createdAt,value
2019-01-14T00:00:48.231Z,86.24
2019-01-14T00:01:48.259Z,86.82
2019-01-14T00:02:48.296Z,86.24
2019-01-14T00:03:48.319Z,86.53
2019-01-14T00:04:55.356Z,86.53
2019-01-14T00:05:48.382Z,85.68
2019-01-14T00:06:48.408Z,85.39
2019-01-14T00:07:48.438Z,85.68
2019-01-14T00:08:48.467Z,85.39
2019-01-14T00:09:48.496Z,85.01
2019-01-14T00:10:48.526Z,85.11
2019-01-14T00:11:48.558Z,84.53
2019-01-14T00:12:48.588Z,84.53
2019-01-14T00:13:48.618Z,83.87
2019-01-14T00:14:48.645Z,83.49
2019-01-14T00:15:48.680Z,82.73
2019-01-14T00:16:48.706Z,82.54
2019-01-14T00:17:48.743Z,82.07
2019-01-14T00:18:48.764Z,81.59
2019-01-14T00:19:48.795Z,81.59
2019-01-14T00:20:48.826Z,81.12
2019-01-14T00:21:48.855Z,80.45
2019-01-14T00:22:48.884Z,81.21
2019-01-14T00:23:48.914Z,80.55
2019-01-14T00:24:48.946Z,81.02
2019-01-14T00:25:48.975Z,81.40
2019-01-14T00:26:49.004Z,81.30
2019-01-14T00:27:49.033Z,81.78
2019-01-14T00:28:49.062Z,80.64
2019-01-14T00:29:49.091Z,81.02
2019-01-14T00:30:49.123Z,80.55
2019-01-14T00:31:49.152Z,80.22
2019-01-14T00:32:49.182Z,79.94
2019-01-14T00:33:49.214Z,79.94
2019-01-14T00:34:49.241Z,80.03
2019-01-14T00:35:49.270Z,80.32
2019-01-14T00:36:49.299Z,80.51
2019-01-14T00:37:49.328Z,80.51
2019-01-14T00:38:49.359Z,80.41
2019-01-14T00:39:49.389Z,80.88
2019-01-14T00:40:49.419Z,80.41
2019-01-14T00:41:49.448Z,81.26
2019-01-14T00:42:49.477Z,81.45
2019-01-14T00:43:49.506Z,81.65
2019-01-14T00:44:49.537Z,81.84
2019-01-14T00:45:49.564Z,81.65
2019-01-14T00:46:49.607Z,81.84
2019-01-14T00:47:49.625Z,81.65
2019-01-14T00:48:49.654Z,81.45
2019-01-14T00:49:49.683Z,81.36
2019-01-14T00:50:49.713Z,81.84
2019-01-14T00:51:49.744Z,81.74
2019-01-14T00:52:49.772Z,82.21
2019-01-14T00:53:49.804Z,82.78
2019-01-14T00:54:49.831Z,82.78
2019-01-14T00:55:49.863Z,82.59
2019-01-14T00:56:49.891Z,83.16
2019-01-14T00:57:49.920Z,83.07
2019-01-14T00:58:49.951Z,82.97
2019-01-14T00:59:49.980Z,82.21
2019-01-14T01:00:50.011Z,82.40
2019-01-14T01:01:50.039Z,82.21
2019-01-14T01:02:50.068Z,82.40
2019-01-14T01:03:50.099Z,82.21
2019-01-14T01:04:50.129Z,82.59
2019-01-14T01:05:50.157Z,82.50
2019-01-14T01:06:50.188Z,82.78
2019-01-14T01:07:50.215Z,82.88
2019-01-14T01:08:50.245Z,82.50
2019-01-14T01:09:50.277Z,82.50
2019-01-14T01:10:50.304Z,82.50
2019-01-14T01:11:50.337Z,82.69
2019-01-14T01:12:50.364Z,82.97
2019-01-14T01:13:50.392Z,83.16
2019-01-14T01:14:50.423Z,83.64
2019-01-14T01:15:50.451Z,83.45
2019-01-14T01:16:50.482Z,83.54
2019-01-14T01:17:50.512Z,84.11
2019-01-14T01:18:50.544Z,84.11
2019-01-14T01:19:50.569Z,84.21
2019-01-14T01:20:50.600Z,84.11
2019-01-14T01:21:50.629Z,84.40
2019-01-14T01:22:50.657Z,83.83
2019-01-14T01:23:50.687Z,83.83
2019-01-14T01:24:50.717Z,84.21
2019-01-14T01:25:50.746Z,84.21
2019-01-14T01:26:50.775Z,84.97
2019-01-14T01:27:50.811Z,84.49
2019-01-14T01:28:50.835Z,84.30
2019-01-14T01:29:50.864Z,83.92
2019-01-14T01:30:50.893Z,84.30
2019-01-14T01:31:50.922Z,84.49
2019-01-14T01:32:50.954Z,83.83
2019-01-14T01:33:50.982Z,84.30
2019-01-14T01:34:51.011Z,84.49
2019-01-14T01:35:51.042Z,84.30
2019-01-14T01:36:51.079Z,84.78
2019-01-14T01:37:51.098Z,84.68
2019-01-14T01:38:51.127Z,84.30
2019-01-14T01:39:51.159Z,84.59
2019-01-14T01:40:51.194Z,84.97
2019-01-14T01:41:51.218Z,84.87
2019-01-14T01:42:51.247Z,84.97
2019-01-14T01:43:51.276Z,84.97
2019-01-14T01:44:51.304Z,84.97
2019-01-14T01:45:51.335Z,85.06
2019-01-14T01:46:51.364Z,85.16
2019-01-14T01:47:51.395Z,85.35
2019-01-14T01:48:51.426Z,85.16
2019-01-14T01:49:51.454Z,85.63
2019-01-14T01:50:51.483Z,85.53
2019-01-14T01:51:51.511Z,85.82
2019-01-14T01:52:51.542Z,85.53
2019-01-14T01:53:51.569Z,86.49
2019-01-14T01:54:51.598Z,85.91
2019-01-14T01:55:51.629Z,85.53
2019-01-14T01:56:51.657Z,86.39
2019-01-14T01:57:51.688Z,86.39
2019-01-14T01:58:51.718Z,86.39
2019-01-14T01:59:51.746Z,85.91
2019-01-14T02:00:51.775Z,85.25
2019-01-14T02:01:51.804Z,85.16
2019-01-14T02:02:51.834Z,85.44
2019-01-14T02:03:51.866Z,84.68
2019-01-14T02:04:51.894Z,84.68
2019-01-14T02:05:51.922Z,85.21
2019-01-14T02:06:51.953Z,85.11
2019-01-14T02:07:51.984Z,85.53
2019-01-14T02:08:52.012Z,85.40
2019-01-14T02:09:52.040Z,85.68
2019-01-14T02:10:52.070Z,85.44
2019-01-14T02:11:52.098Z,85.40
2019-01-14T02:12:52.130Z,85.53
2019-01-14T02:13:52.157Z,85.16
2019-01-14T02:14:52.186Z,85.30
2019-01-14T02:15:52.216Z,85.02
2019-01-14T02:16:52.246Z,84.64
2019-01-14T02:17:52.277Z,85.11
2019-01-14T02:18:52.302Z,84.45
2019-01-14T02:19:52.332Z,85.40
2019-01-14T02:20:52.361Z,84.74
2019-01-14T02:21:52.389Z,84.26
2019-01-14T02:22:52.420Z,84.74
2019-01-14T02:23:52.449Z,84.07
2019-01-14T02:24:52.484Z,84.45
2019-01-14T02:25:52.514Z,85.02
2019-01-14T02:26:52.536Z,84.45
2019-01-14T02:27:52.566Z,83.88
2019-01-14T02:28:52.595Z,83.78
2019-01-14T02:29:52.625Z,83.26
2019-01-14T02:30:52.654Z,83.40
2019-01-14T02:31:52.682Z,84.07
2019-01-14T02:32:52.713Z,83.88
2019-01-14T02:33:52.742Z,83.40
2019-01-14T02:34:52.772Z,83.22
2019-01-14T02:35:52.801Z,83.22
2019-01-14T02:36:52.830Z,83.69
2019-01-14T02:37:52.858Z,83.50
2019-01-14T02:38:52.886Z,83.16
2019-01-14T02:39:52.916Z,82.88
2019-01-14T02:40:52.947Z,82.31
2019-01-14T02:41:52.975Z,83.03
2019-01-14T02:42:53.004Z,83.07
2019-01-14T02:43:53.036Z,82.93
2019-01-14T02:44:53.063Z,82.78
2019-01-14T02:45:53.092Z,82.21
2019-01-14T02:46:53.128Z,81.60
2019-01-14T02:47:53.150Z,81.70
2019-01-14T02:48:53.178Z,81.60
2019-01-14T02:49:53.213Z,81.41
2019-01-14T02:50:53.237Z,81.51
2019-01-14T02:51:53.266Z,81.60
2019-01-14T02:52:53.296Z,82.21
2019-01-14T02:53:53.324Z,82.36
2019-01-14T02:54:53.354Z,81.51
2019-01-14T02:55:53.383Z,81.41
2019-01-14T02:56:53.412Z,81.51
2019-01-14T02:57:53.440Z,81.04
2019-01-14T02:58:53.470Z,80.84
2019-01-14T02:59:53.500Z,80.37
2019-01-14T03:00:53.543Z,80.75
2019-01-14T03:01:53.559Z,81.60
2019-01-14T03:02:53.589Z,81.79
2019-01-14T03:03:53.616Z,81.70
2019-01-14T03:04:53.645Z,80.94
2019-01-14T03:05:53.674Z,81.41
2019-01-14T03:06:57.994Z,81.79
2019-01-14T03:07:53.732Z,80.94
2019-01-14T03:08:53.763Z,81.13
2019-01-14T03:09:53.791Z,80.84
2019-01-14T03:10:53.821Z,81.51
2019-01-14T03:11:53.849Z,81.88
2019-01-14T03:12:53.883Z,80.75
2019-01-14T03:13:53.914Z,80.37
2019-01-14T03:14:53.939Z,80.65
2019-01-14T03:15:53.966Z,80.46
2019-01-14T03:16:53.995Z,80.37
2019-01-14T03:17:54.028Z,79.99
2019-01-14T03:18:54.056Z,80.37
2019-01-14T03:19:54.086Z,81.04
2019-01-14T03:20:54.113Z,80.84
2019-01-14T03:21:54.150Z,80.08
2019-01-14T03:22:54.170Z,79.80
2019-01-14T03:23:54.199Z,80.18
2019-01-14T03:24:54.231Z,80.37
2019-01-14T03:25:58.345Z,79.52
2019-01-14T03:26:54.294Z,80.27
2019-01-14T03:27:54.317Z,80.18
2019-01-14T03:28:54.346Z,79.61
2019-01-14T03:29:54.377Z,79.80
2019-01-14T03:30:54.405Z,80.18
2019-01-14T03:31:54.435Z,80.18
2019-01-14T03:32:54.481Z,80.08
2019-01-14T03:33:54.496Z,79.42
2019-01-14T03:34:54.520Z,80.18
2019-01-14T03:35:54.554Z,79.99
2019-01-14T03:36:54.587Z,79.52
2019-01-14T03:37:54.609Z,79.42
2019-01-14T03:38:54.639Z,79.61
2019-01-14T03:39:54.667Z,79.04
2019-01-14T03:40:54.697Z,79.42
2019-01-14T03:41:54.727Z,78.56
2019-01-14T03:42:54.756Z,78.66
2019-01-14T03:43:54.786Z,78.75
2019-01-14T03:44:54.823Z,78.95
2019-01-14T03:45:54.843Z,78.00
2019-01-14T03:46:54.872Z,78.47
2019-01-14T03:47:54.901Z,78.47
2019-01-14T03:48:54.931Z,78.47
2019-01-14T03:49:54.958Z,78.28
2019-01-14T03:50:54.989Z,78.56
2019-01-14T03:51:55.017Z,78.56
2019-01-14T03:52:55.046Z,78.56
2019-01-14T03:53:55.074Z,78.56
2019-01-14T03:54:55.107Z,78.56
2019-01-14T03:55:55.136Z,78.28
2019-01-14T03:56:55.163Z,78.47
2019-01-14T03:57:55.192Z,78.75
2019-01-14T03:58:55.220Z,79.33
2019-01-14T03:59:55.250Z,79.71
2019-01-14T04:00:55.285Z,79.33
2019-01-14T04:01:55.309Z,79.04
2019-01-14T04:02:55.339Z,78.75
2019-01-14T04:03:55.367Z,79.14
2019-01-14T04:04:55.397Z,79.14
2019-01-14T04:05:55.426Z,78.38
2019-01-14T04:06:55.454Z,77.71
2019-01-14T04:07:55.485Z,77.43
2019-01-14T04:08:55.514Z,77.81
2019-01-14T04:09:55.541Z,77.62
2019-01-14T04:10:55.573Z,77.62
2019-01-14T04:11:55.601Z,77.81
2019-01-14T04:12:55.630Z,77.81
2019-01-14T04:13:55.656Z,77.62
2019-01-14T04:14:55.719Z,77.62
2019-01-14T04:15:55.717Z,77.62
2019-01-14T04:16:55.749Z,77.62
2019-01-14T04:17:55.777Z,77.71
2019-01-14T04:18:55.804Z,77.33
2019-01-14T04:19:55.836Z,76.48
2019-01-14T04:20:55.861Z,76.39
2019-01-14T04:21:55.894Z,76.29
2019-01-14T04:22:55.918Z,77.24
2019-01-14T04:23:55.949Z,76.57
2019-01-14T04:24:55.978Z,76.67
2019-01-14T04:25:56.007Z,77.14
2019-01-14T04:26:56.035Z,77.33
2019-01-14T04:27:56.063Z,76.57
2019-01-14T04:28:56.093Z,77.05
2019-01-14T04:29:56.135Z,77.24
2019-01-14T04:30:56.153Z,76.67
2019-01-14T04:31:56.181Z,75.81
2019-01-14T04:32:56.213Z,74.54
2019-01-14T04:33:56.238Z,74.45
2019-01-14T04:34:56.272Z,74.64
2019-01-14T04:35:56.300Z,73.12
2019-01-14T04:36:56.327Z,73.31
2019-01-14T04:37:56.354Z,72.84
2019-01-14T04:38:56.384Z,73.41
2019-01-14T04:39:56.411Z,73.50
2019-01-14T04:40:56.441Z,72.74
2019-01-14T04:41:56.468Z,72.93
2019-01-14T04:42:56.503Z,73.03
2019-01-14T04:43:56.528Z,73.03
2019-01-14T04:44:56.558Z,72.27
2019-01-14T04:45:56.587Z,72.64
2019-01-14T04:46:56.613Z,73.60
2019-01-14T04:47:56.643Z,73.50
2019-01-14T04:48:56.671Z,73.31
2019-01-14T04:49:56.699Z,73.31
2019-01-14T04:50:56.729Z,73.50
2019-01-14T04:51:56.760Z,72.36
2019-01-14T04:52:56.788Z,72.74
2019-01-14T04:53:56.815Z,72.27
2019-01-14T04:54:56.842Z,72.45
2019-01-14T04:55:56.872Z,72.55
2019-01-14T04:56:56.901Z,72.45
2019-01-14T04:57:56.931Z,71.41
2019-01-14T04:58:56.959Z,71.98
2019-01-14T04:59:56.986Z,71.51
2019-01-14T05:00:57.015Z,71.32
2019-01-14T05:01:57.044Z,72.36
2019-01-14T05:02:57.073Z,71.47
2019-01-14T05:03:57.100Z,71.00
2019-01-14T05:04:57.132Z,71.38
2019-01-14T05:05:57.158Z,71.38
2019-01-14T05:06:57.187Z,71.19
2019-01-14T05:07:57.217Z,71.66
2019-01-14T05:08:57.246Z,71.09
2019-01-14T05:09:57.273Z,72.23
2019-01-14T05:10:57.305Z,71.66
2019-01-14T05:11:57.331Z,72.23
2019-01-14T05:12:57.361Z,71.95
2019-01-14T05:13:57.387Z,72.23
2019-01-14T05:14:57.415Z,71.38
2019-01-14T05:15:57.445Z,72.14
2019-01-14T05:16:57.473Z,72.42
2019-01-14T05:17:57.501Z,72.14
2019-01-14T05:18:57.531Z,71.95
2019-01-14T05:19:57.558Z,72.33
2019-01-14T05:20:57.682Z,72.14
2019-01-14T05:21:57.615Z,72.23
2019-01-14T05:22:57.648Z,72.04
2019-01-14T05:23:57.674Z,72.14
2019-01-14T05:24:57.702Z,72.42
2019-01-14T05:25:57.730Z,72.04
2019-01-14T05:26:57.764Z,71.57
2019-01-14T05:27:57.786Z,70.62
2019-01-14T05:28:57.816Z,70.28
2019-01-14T05:29:57.848Z,70.18
2019-01-14T05:30:57.871Z,71.00
2019-01-14T05:31:57.901Z,71.38
2019-01-14T05:32:57.929Z,71.38
2019-01-14T05:33:57.962Z,71.47
2019-01-14T05:34:57.992Z,71.47
2019-01-14T05:35:58.017Z,72.04
2019-01-14T05:36:58.045Z,71.85
2019-01-14T05:37:58.073Z,71.85
2019-01-14T05:38:58.101Z,71.47
2019-01-14T05:39:58.129Z,71.22
2019-01-14T05:40:58.158Z,71.38
2019-01-14T05:41:58.187Z,71.47
2019-01-14T05:42:58.214Z,71.95
2019-01-14T05:43:58.247Z,71.57
2019-01-14T05:44:58.273Z,72.14
2019-01-14T05:45:58.300Z,72.80
2019-01-14T05:46:58.329Z,73.08
2019-01-14T05:47:58.357Z,72.71
2019-01-14T05:48:58.386Z,72.80
2019-01-14T05:49:58.415Z,72.61
2019-01-14T05:50:58.443Z,72.93
2019-01-14T05:51:58.475Z,72.45
2019-01-14T05:52:58.502Z,71.19
2019-01-14T05:53:58.527Z,71.00
2019-01-14T05:54:58.557Z,71.32
2019-01-14T05:55:58.585Z,71.28
2019-01-14T05:56:58.615Z,71.89
2019-01-14T05:57:58.642Z,71.60
2019-01-14T05:58:58.674Z,71.22
2019-01-14T05:59:58.698Z,71.41
2019-01-14T06:00:58.727Z,71.51
2019-01-14T06:01:58.758Z,71.13
2019-01-14T06:02:58.784Z,71.22
2019-01-14T06:03:58.813Z,71.60
2019-01-14T06:04:58.841Z,71.00
2019-01-14T06:05:58.869Z,70.75
2019-01-14T06:06:58.898Z,71.41
2019-01-14T06:07:58.927Z,72.27
2019-01-14T06:08:58.956Z,72.17
2019-01-14T06:09:58.983Z,71.70
2019-01-14T06:10:59.029Z,71.70
2019-01-14T06:11:59.042Z,72.27
2019-01-14T06:12:59.076Z,70.75
2019-01-14T06:13:59.097Z,70.94
2019-01-14T06:14:59.126Z,70.15
2019-01-14T06:15:59.155Z,70.15
2019-01-14T06:16:59.185Z,70.53
2019-01-14T06:17:59.210Z,71.09
2019-01-14T06:18:59.244Z,70.90
2019-01-14T06:19:59.273Z,70.90
2019-01-14T06:20:59.299Z,72.04
2019-01-14T06:21:59.326Z,71.66
2019-01-14T06:22:59.354Z,71.47
2019-01-14T06:23:59.383Z,71.00
2019-01-14T06:24:59.411Z,72.04
2019-01-14T06:25:59.439Z,72.04
2019-01-14T06:26:59.468Z,72.23
2019-01-14T06:27:59.497Z,72.23
2019-01-14T06:28:59.525Z,71.66
2019-01-14T06:29:59.553Z,72.17
2019-01-14T06:30:59.586Z,72.23
2019-01-14T06:31:59.609Z,72.33
2019-01-14T06:32:59.647Z,72.52
2019-01-14T06:33:59.666Z,72.99
2019-01-14T06:34:59.697Z,73.08
2019-01-14T06:35:59.728Z,72.99
2019-01-14T06:36:59.754Z,73.50
2019-01-14T06:37:59.784Z,73.08
2019-01-14T06:38:59.810Z,73.65
2019-01-14T06:39:59.840Z,73.27
2019-01-14T06:40:59.901Z,73.94
2019-01-14T06:41:59.895Z,74.69
2019-01-14T06:42:59.924Z,75.59
2019-01-14T06:43:59.951Z,76.40
2019-01-14T06:44:59.980Z,77.20
2019-01-14T06:46:00.008Z,77.39
2019-01-14T06:47:00.037Z,78.72
2019-01-14T06:48:00.065Z,79.47
2019-01-14T06:49:00.095Z,80.43
2019-01-14T06:50:00.123Z,81.94
2019-01-14T06:51:00.151Z,82.89
2019-01-14T06:52:00.186Z,83.84
2019-01-14T06:53:00.209Z,84.41
2019-01-14T06:54:00.237Z,84.36
2019-01-14T06:55:00.266Z,84.55
2019-01-14T06:56:00.293Z,84.46
2019-01-14T06:57:00.323Z,84.65
2019-01-14T06:58:00.351Z,84.94
2019-01-14T06:59:00.377Z,85.22
2019-01-14T07:00:00.406Z,84.94
2019-01-14T07:01:00.435Z,85.22
2019-01-14T07:02:00.463Z,85.60
2019-01-14T07:03:00.491Z,85.31
2019-01-14T07:04:00.525Z,85.50
2019-01-14T07:05:00.629Z,85.13
2019-01-14T07:06:00.582Z,84.55
2019-01-14T07:07:00.608Z,84.55
2019-01-14T07:08:00.640Z,84.84
2019-01-14T07:09:00.664Z,84.55
2019-01-14T07:10:00.693Z,84.46
2019-01-14T07:11:00.725Z,84.55
2019-01-14T07:12:00.751Z,84.36
2019-01-14T07:13:00.794Z,84.27
2019-01-14T07:14:00.805Z,84.55
2019-01-14T07:15:00.833Z,84.17
2019-01-14T07:16:00.861Z,85.31
2019-01-14T07:17:00.891Z,84.65
2019-01-14T07:18:00.919Z,84.84
2019-01-14T07:19:00.946Z,84.51
2019-01-14T07:20:00.975Z,84.51
2019-01-14T07:21:01.003Z,84.65
2019-01-14T07:22:01.034Z,85.03
2019-01-14T07:23:01.060Z,85.08
2019-01-14T07:24:01.088Z,85.17
2019-01-14T07:25:01.118Z,85.13
2019-01-14T07:26:01.143Z,85.17
2019-01-14T07:27:01.172Z,84.51
2019-01-14T07:28:01.202Z,85.17
2019-01-14T07:29:01.230Z,84.51
2019-01-14T07:30:01.258Z,84.99
2019-01-14T07:31:01.284Z,84.36
2019-01-14T07:32:01.314Z,84.94
2019-01-14T07:33:01.342Z,83.80
2019-01-14T07:34:01.371Z,83.98
2019-01-14T07:35:02.320Z,83.94
2019-01-14T07:36:01.443Z,83.47
2019-01-14T07:37:01.455Z,82.43
2019-01-14T07:38:06.576Z,81.33
2019-01-14T07:39:01.513Z,81.14
2019-01-14T07:40:01.539Z,80.95
2019-01-14T07:41:01.568Z,80.38
2019-01-14T07:42:01.594Z,80.76
2019-01-14T07:43:01.627Z,80.00
2019-01-14T07:44:01.657Z,80.10
2019-01-14T07:45:01.681Z,79.44
2019-01-14T07:46:01.711Z,79.06
2019-01-14T07:47:01.737Z,78.11
2019-01-14T07:48:01.771Z,77.83
2019-01-14T07:49:01.795Z,77.83
2019-01-14T07:50:01.890Z,75.55
2019-01-14T07:51:01.853Z,73.65
2019-01-14T07:52:01.880Z,74.03
2019-01-14T07:53:01.906Z,74.60
2019-01-14T07:54:01.939Z,73.84
2019-01-14T07:55:01.966Z,72.71
2019-01-14T07:56:01.992Z,72.14
2019-01-14T07:57:02.020Z,71.76
2019-01-14T07:58:02.050Z,71.47
2019-01-14T07:59:02.076Z,72.04
2019-01-14T08:00:02.103Z,72.04
2019-01-14T08:01:02.133Z,71.38
2019-01-14T08:02:02.162Z,71.38
2019-01-14T08:03:02.190Z,71.47
2019-01-14T08:04:02.218Z,71.00
2019-01-14T08:05:02.246Z,70.90
2019-01-14T08:06:02.272Z,71.00
2019-01-14T08:07:02.356Z,71.66
2019-01-14T08:08:02.329Z,72.23
2019-01-14T08:09:02.359Z,71.09
2019-01-14T08:10:02.385Z,70.90
2019-01-14T08:11:02.412Z,71.19
2019-01-14T08:12:02.442Z,70.90
2019-01-14T08:13:02.474Z,71.00
2019-01-14T08:14:02.497Z,71.47
2019-01-14T08:15:02.537Z,71.76
2019-01-14T08:16:02.553Z,71.00
2019-01-14T08:17:02.584Z,71.19
2019-01-14T08:18:02.615Z,70.90
2019-01-14T08:19:02.640Z,71.00
2019-01-14T08:20:02.668Z,71.57
2019-01-14T08:21:02.701Z,71.47
2019-01-14T08:22:02.724Z,71.38
2019-01-14T08:23:02.753Z,71.66
2019-01-14T08:24:02.781Z,71.85
2019-01-14T08:25:02.808Z,71.85
2019-01-14T08:26:02.841Z,71.76
2019-01-14T08:27:02.866Z,71.57
2019-01-14T08:28:02.893Z,71.66
2019-01-14T08:29:02.921Z,71.76
2019-01-14T08:30:02.949Z,71.57
2019-01-14T08:31:02.978Z,71.47
2019-01-14T08:32:03.006Z,71.09
2019-01-14T08:33:03.035Z,70.72
2019-01-14T08:34:03.062Z,71.00
2019-01-14T08:35:03.091Z,71.19
2019-01-14T08:36:03.124Z,70.62
2019-01-14T08:37:03.149Z,71.66
2019-01-14T08:38:03.177Z,71.28
2019-01-14T08:39:03.205Z,71.00
2019-01-14T08:40:03.233Z,70.81
2019-01-14T08:41:03.262Z,70.34
2019-01-14T08:42:03.293Z,70.15
2019-01-14T08:43:03.317Z,71.00
2019-01-14T08:44:03.345Z,70.81
2019-01-14T08:45:03.374Z,70.34
2019-01-14T08:46:03.401Z,70.24
2019-01-14T08:47:03.430Z,69.96
2019-01-14T08:48:03.462Z,70.34
2019-01-14T08:49:03.486Z,70.34
2019-01-14T08:50:03.514Z,70.15
2019-01-14T08:51:03.543Z,68.63
2019-01-14T08:52:03.570Z,68.63
2019-01-14T08:53:03.601Z,68.35
2019-01-14T08:54:03.629Z,69.20
2019-01-14T08:55:03.663Z,69.96
2019-01-14T08:56:03.688Z,69.67
2019-01-14T08:57:03.716Z,69.48
2019-01-14T08:58:03.741Z,68.82
2019-01-14T08:59:03.770Z,68.35
2019-01-14T09:00:03.798Z,67.96
2019-01-14T09:01:03.828Z,67.77
2019-01-14T09:02:03.854Z,67.58
2019-01-14T09:03:03.886Z,67.11
2019-01-14T09:04:03.911Z,67.87
2019-01-14T09:05:03.939Z,68.25
2019-01-14T09:06:03.966Z,68.15
2019-01-14T09:07:03.995Z,68.54
2019-01-14T09:08:04.023Z,67.40
2019-01-14T09:09:04.053Z,67.58
2019-01-14T09:10:04.079Z,67.21
2019-01-14T09:11:04.106Z,67.02
2019-01-14T09:12:04.138Z,66.74
2019-01-14T09:13:04.165Z,67.77
2019-01-14T09:14:04.193Z,67.02
2019-01-14T09:15:04.220Z,66.93
2019-01-14T09:16:04.250Z,66.45
2019-01-14T09:17:04.287Z,66.26
2019-01-14T09:18:04.306Z,65.72
2019-01-14T09:19:04.335Z,65.22
2019-01-14T09:20:04.363Z,64.78
2019-01-14T09:21:04.390Z,65.12
2019-01-14T09:22:04.417Z,65.50
2019-01-14T09:23:04.451Z,65.12
2019-01-14T09:24:04.474Z,65.50
2019-01-14T09:25:04.506Z,65.44
2019-01-14T09:26:04.531Z,65.82
2019-01-14T09:27:04.560Z,65.06
2019-01-14T09:28:04.590Z,65.16
2019-01-14T09:29:04.618Z,65.53
2019-01-14T09:30:04.643Z,64.87
2019-01-14T09:31:04.674Z,65.16
2019-01-14T09:32:04.702Z,65.16
2019-01-14T09:33:04.730Z,65.16
2019-01-14T09:34:04.757Z,64.40
2019-01-14T09:35:04.786Z,63.45
2019-01-14T09:36:04.815Z,63.26
2019-01-14T09:37:04.844Z,63.17
2019-01-14T09:38:04.871Z,62.50
2019-01-14T09:39:04.900Z,61.65
2019-01-14T09:40:04.939Z,62.02
2019-01-14T09:41:04.958Z,62.40
2019-01-14T09:42:04.984Z,62.69
2019-01-14T09:43:05.013Z,62.53
2019-01-14T09:44:05.041Z,62.15
2019-01-14T09:45:05.071Z,61.39
2019-01-14T09:46:05.099Z,61.77
2019-01-14T09:47:05.131Z,60.82
2019-01-14T09:48:05.159Z,60.53
2019-01-14T09:49:05.187Z,59.40
2019-01-14T09:50:05.218Z,59.40
2019-01-14T09:51:05.241Z,57.98
2019-01-14T09:52:05.329Z,58.36
2019-01-14T09:53:05.302Z,57.50
2019-01-14T09:54:05.331Z,57.59
2019-01-14T09:55:05.852Z,58.58
2019-01-14T09:56:05.389Z,57.53
2019-01-14T09:57:05.416Z,56.58
2019-01-14T09:58:05.446Z,56.29
2019-01-14T09:59:05.474Z,55.63
2019-01-14T10:00:05.506Z,56.20
2019-01-14T10:01:05.534Z,55.54
2019-01-14T10:02:05.562Z,55.94
2019-01-14T10:03:07.244Z,56.23
2019-01-14T10:04:05.623Z,55.09
2019-01-14T10:05:05.654Z,55.28
2019-01-14T10:06:05.683Z,55.85
2019-01-14T10:07:05.713Z,55.09
2019-01-14T10:08:05.744Z,54.07
2019-01-14T10:09:05.777Z,53.03
2019-01-14T10:10:05.806Z,53.12
2019-01-14T10:11:05.893Z,52.93
2019-01-14T10:12:05.871Z,52.45
2019-01-14T10:13:05.902Z,52.45
2019-01-14T10:14:05.934Z,52.08
2019-01-14T10:15:05.968Z,52.20
2019-01-14T10:16:05.997Z,51.43
2019-01-14T10:17:06.030Z,51.15
2019-01-14T10:18:06.062Z,50.20
2019-01-14T10:19:06.097Z,50.87
2019-01-14T10:20:06.129Z,50.39
2019-01-14T10:21:06.164Z,50.51
2019-01-14T10:22:06.195Z,50.32
2019-01-14T10:23:06.231Z,49.85
2019-01-14T10:24:06.262Z,49.85
2019-01-14T10:25:06.301Z,50.42
2019-01-14T10:26:06.330Z,49.30
2019-01-14T10:27:06.364Z,48.73
2019-01-14T10:28:06.398Z,48.97
2019-01-14T10:29:06.433Z,47.66
2019-01-14T10:30:06.465Z,44.42
2019-01-14T10:31:06.504Z,43.87
2019-01-14T10:32:06.534Z,43.87
2019-01-14T10:33:06.568Z,44.06
2019-01-14T10:34:06.601Z,42.46
2019-01-14T10:35:06.636Z,41.14
2019-01-14T10:36:06.670Z,40.11
2019-01-14T10:37:06.706Z,39.56
2019-01-14T10:38:06.740Z,37.85
2019-01-14T10:39:06.773Z,35.69
2019-01-14T10:40:06.807Z,33.80
2019-01-14T10:41:06.844Z,33.81
2019-01-14T10:42:06.877Z,31.26
2019-01-14T10:43:06.916Z,29.93
2019-01-14T10:44:06.949Z,29.17
2019-01-14T10:45:06.984Z,27.67
2019-01-14T10:46:07.018Z,26.93
2019-01-14T10:47:07.057Z,25.11
2019-01-14T10:48:07.092Z,23.86
2019-01-14T10:49:07.149Z,24.16
2019-01-14T10:50:07.164Z,21.95
2019-01-14T10:51:07.205Z,22.81
2019-01-14T10:52:07.236Z,22.16
2019-01-14T10:53:07.274Z,20.70
2019-01-14T10:54:07.311Z,21.77
2019-01-14T10:55:12.318Z,21.96
2019-01-14T10:56:07.386Z,21.27
2019-01-14T10:57:07.425Z,22.73
2019-01-14T10:58:07.458Z,20.53
2019-01-14T10:59:07.497Z,19.67
2019-01-14T11:00:07.537Z,21.12
2019-01-14T11:01:07.571Z,19.60
2019-01-14T11:02:07.609Z,18.55
2019-01-14T11:03:07.648Z,18.85
2019-01-14T11:04:07.688Z,16.44
2019-01-14T11:05:07.724Z,16.44
2019-01-14T11:06:07.760Z,17.03
2019-01-14T11:07:07.800Z,15.78
2019-01-14T11:08:07.840Z,16.36
2019-01-14T11:09:07.878Z,15.86
2019-01-14T11:10:07.917Z,15.56
2019-01-14T11:11:07.954Z,15.55
2019-01-14T11:12:07.996Z,17.19
2019-01-14T11:13:08.031Z,17.08
2019-01-14T11:14:08.069Z,17.35
2019-01-14T11:15:08.111Z,18.40
2019-01-14T11:16:08.146Z,19.37
2019-01-14T11:17:08.186Z,19.65
2019-01-14T11:18:08.222Z,19.27
2019-01-14T11:19:08.261Z,18.38
2019-01-14T11:20:08.303Z,19.53
2019-01-14T11:21:08.337Z,19.71
2019-01-14T11:22:08.375Z,22.12
2019-01-14T11:23:08.411Z,21.54
2019-01-14T11:24:08.451Z,20.97
2019-01-14T11:25:08.490Z,21.37
2019-01-14T11:26:08.525Z,20.70
2019-01-14T11:27:08.567Z,19.35
2019-01-14T11:28:08.601Z,19.43
2019-01-14T11:29:08.640Z,19.62
2019-01-14T11:30:08.677Z,20.85
2019-01-14T11:31:08.717Z,22.00
2019-01-14T11:32:08.753Z,21.72
2019-01-14T11:33:08.791Z,21.44
2019-01-14T11:34:08.825Z,21.00
2019-01-14T11:35:08.864Z,19.27
2019-01-14T11:36:08.900Z,19.29
2019-01-14T11:37:08.942Z,17.45
2019-01-14T11:38:08.975Z,17.53
2019-01-14T11:39:09.011Z,17.41
2019-01-14T11:40:09.053Z,18.26
2019-01-14T11:41:09.087Z,19.49
2019-01-14T11:42:09.125Z,22.16
2019-01-14T11:43:09.160Z,22.82
2019-01-14T11:44:09.199Z,23.47
2019-01-14T11:45:09.233Z,23.84
2019-01-14T11:46:09.270Z,25.25
2019-01-14T11:47:09.307Z,26.57
2019-01-14T11:48:09.345Z,27.42
2019-01-14T11:49:09.379Z,27.79
2019-01-14T11:50:09.415Z,30.16
2019-01-14T11:51:09.452Z,30.72
2019-01-14T11:52:09.485Z,30.61
2019-01-14T11:53:09.520Z,31.09
2019-01-14T11:54:09.556Z,31.64
2019-01-14T11:55:09.590Z,32.48
2019-01-14T11:56:09.630Z,33.91
2019-01-14T11:57:09.659Z,34.38
2019-01-14T11:58:09.701Z,34.07
2019-01-14T11:59:09.728Z,35.60
2019-01-14T12:00:09.761Z,36.05
2019-01-14T12:01:09.797Z,36.62
2019-01-14T12:02:09.829Z,36.79
2019-01-14T12:03:09.863Z,37.74
2019-01-14T12:04:09.895Z,38.89
2019-01-14T12:05:09.933Z,40.20
2019-01-14T12:06:09.963Z,40.39
2019-01-14T12:07:09.996Z,40.95
2019-01-14T12:08:10.032Z,40.95
2019-01-14T12:09:12.331Z,41.05
2019-01-14T12:10:10.093Z,40.86
2019-01-14T12:11:10.127Z,41.91
2019-01-14T12:12:10.157Z,41.41
2019-01-14T12:13:10.193Z,41.89
2019-01-14T12:14:10.223Z,42.08
2019-01-14T12:15:10.254Z,42.74
2019-01-14T12:16:10.287Z,42.83
2019-01-14T12:17:10.319Z,43.21
2019-01-14T12:18:10.350Z,42.74
2019-01-14T12:19:10.380Z,42.55
2019-01-14T12:20:10.414Z,42.74
2019-01-14T12:21:10.445Z,42.55
2019-01-14T12:22:10.476Z,43.02
2019-01-14T12:23:10.507Z,42.93
2019-01-14T12:24:10.537Z,43.60
2019-01-14T12:25:10.571Z,43.60
2019-01-14T12:26:10.602Z,43.41
2019-01-14T12:27:10.631Z,43.21
2019-01-14T12:28:10.669Z,44.17
2019-01-14T12:29:10.694Z,44.14
2019-01-14T12:30:10.724Z,44.83
2019-01-14T12:31:10.756Z,45.00
2019-01-14T12:32:10.788Z,45.19
2019-01-14T12:33:10.820Z,44.62
2019-01-14T12:34:10.852Z,44.81
2019-01-14T12:35:10.888Z,45.09
2019-01-14T12:36:10.910Z,45.95
2019-01-14T12:37:10.939Z,45.76
2019-01-14T12:38:10.969Z,46.14
2019-01-14T12:39:11.003Z,46.04
2019-01-14T12:40:11.030Z,46.14
2019-01-14T12:41:11.063Z,46.51
2019-01-14T12:42:11.091Z,46.42
2019-01-14T12:43:11.122Z,46.14
2019-01-14T12:44:11.154Z,46.80
2019-01-14T12:45:11.183Z,46.42
2019-01-14T12:46:11.215Z,46.80
2019-01-14T12:47:11.241Z,46.33
2019-01-14T12:48:11.272Z,46.61
2019-01-14T12:49:11.303Z,47.09
2019-01-14T12:50:11.331Z,47.47
2019-01-14T12:51:11.363Z,47.47
2019-01-14T12:52:11.409Z,46.88
2019-01-14T12:53:11.423Z,46.59